createdAt,value
2022-10-12T00:00:08.614Z,1
2022-10-12T00:05:08.125Z,1
2022-10-12T00:10:07.829Z,1
2022-10-12T00:15:08.516Z,1
2022-10-12T00:20:08.262Z,1
2022-10-12T00:25:07.991Z,1
2022-10-12T00:30:07.714Z,1
2022-10-12T00:35:08.432Z,1
2022-10-12T00:40:08.136Z,1
2022-10-12T00:45:07.806Z,1
2022-10-12T00:50:08.508Z,1
2022-10-12T00:55:08.183Z,1
2022-10-12T01:00:07.895Z,1
2022-10-12T01:05:08.601Z,1
2022-10-12T01:10:08.327Z,1
2022-10-12T01:15:08.035Z,1
2022-10-12T01:20:07.757Z,1
2022-10-12T01:25:08.446Z,1
2022-10-12T01:30:08.133Z,1
2022-10-12T01:35:09.835Z,1
2022-10-12T01:40:08.508Z,1
2022-10-12T01:45:08.217Z,1
2022-10-12T01:50:07.912Z,1
2022-10-12T01:55:08.597Z,1
2022-10-12T02:00:08.300Z,1
2022-10-12T02:05:07.994Z,1
2022-10-12T02:10:07.694Z,1
2022-10-12T02:15:08.369Z,1
2022-10-12T02:20:08.115Z,1
2022-10-12T02:25:07.804Z,1
2022-10-12T02:30:08.534Z,1
2022-10-12T02:35:08.251Z,1
2022-10-12T02:40:07.979Z,1
2022-10-12T02:45:07.684Z,1
2022-10-12T02:50:08.367Z,1
2022-10-12T02:55:08.063Z,1
2022-10-12T03:00:07.751Z,1
2022-10-12T03:05:08.449Z,1
2022-10-12T03:10:08.141Z,1
2022-10-12T03:15:07.824Z,1
2022-10-12T03:20:08.529Z,1
2022-10-12T03:25:08.275Z,1
2022-10-12T03:30:07.981Z,1
2022-10-12T03:35:07.745Z,1
2022-10-12T03:40:08.503Z,1
2022-10-12T03:45:08.198Z,1
2022-10-12T03:50:07.904Z,1
2022-10-12T03:55:08.612Z,1
2022-10-12T04:00:08.289Z,1
2022-10-12T04:05:02.197Z,1
2022-10-12T04:10:02.023Z,1
2022-10-12T04:15:01.846Z,1
2022-10-12T04:20:02.608Z,1
2022-10-12T04:25:02.458Z,1
2022-10-12T04:30:02.733Z,1
2022-10-12T04:35:02.494Z,1
2022-10-12T04:40:02.266Z,1
2022-10-12T04:45:02.018Z,1
2022-10-12T04:50:01.857Z,1
2022-10-12T04:55:02.709Z,1
2022-10-12T05:00:02.442Z,1
2022-10-12T05:05:02.280Z,1
2022-10-12T05:10:02.077Z,1
2022-10-12T05:15:01.849Z,1
2022-10-12T05:20:02.587Z,3
2022-10-12T05:25:02.391Z,3
2022-10-12T05:30:02.125Z,11
2022-10-12T05:35:02.102Z,29
2022-10-12T05:40:01.984Z,39
2022-10-12T05:45:01.721Z,68
2022-10-12T05:50:02.486Z,68
2022-10-12T05:55:02.313Z,298
2022-10-12T06:00:02.143Z,298
2022-10-12T06:05:01.973Z,599
2022-10-12T06:10:01.888Z,599
2022-10-12T06:15:02.622Z,996
2022-10-12T06:20:02.457Z,996
2022-10-12T06:25:02.480Z,1000
2022-10-12T06:30:02.344Z,1000
2022-10-12T06:35:02.158Z,2000
2022-10-12T06:40:01.979Z,3000
2022-10-12T06:45:01.816Z,3000
2022-10-12T06:50:02.668Z,5000
2022-10-12T06:55:02.509Z,5000
2022-10-12T07:00:02.315Z,5000
2022-10-12T07:05:02.146Z,5000
2022-10-12T07:10:02.066Z,6000
2022-10-12T07:15:01.910Z,6000
2022-10-12T07:20:02.840Z,5000
2022-10-12T07:25:02.673Z,5000
2022-10-12T07:30:02.504Z,5000
2022-10-12T07:35:02.351Z,5000
2022-10-12T07:40:02.272Z,6000
2022-10-12T07:45:02.211Z,6000
2022-10-12T07:50:02.029Z,7000
2022-10-12T07:55:01.769Z,7000
2022-10-12T08:00:02.506Z,50000
2022-10-12T08:05:02.360Z,50000
2022-10-12T08:10:02.073Z,13000
2022-10-12T08:15:01.917Z,13000
2022-10-12T08:20:02.745Z,17000
2022-10-12T08:25:02.484Z,17000
2022-10-12T08:30:02.300Z,31000
2022-10-12T08:35:02.257Z,33000
2022-10-12T08:40:03.624Z,38000
2022-10-12T08:45:02.693Z,38000
2022-10-12T08:50:02.426Z,11000
2022-10-12T08:55:02.166Z,11000
2022-10-12T09:00:01.976Z,18000
2022-10-12T09:05:01.695Z,78000
2022-10-12T09:10:02.450Z,78000
2022-10-12T09:15:02.306Z,78000
2022-10-12T09:20:02.126Z,43000
2022-10-12T09:25:01.925Z,64000
2022-10-12T09:30:02.705Z,64000
2022-10-12T09:35:02.554Z,34000
2022-10-12T09:40:02.373Z,34000
2022-10-12T09:45:02.183Z,83000
2022-10-12T09:50:02.002Z,83000
2022-10-12T09:55:04.824Z,69000
2022-10-12T10:00:02.581Z,69000
2022-10-12T10:05:02.459Z,77000
2022-10-12T10:10:02.284Z,77000
2022-10-12T10:15:02.350Z,83000
2022-10-12T10:20:02.217Z,83000
2022-10-12T10:25:02.071Z,84000
2022-10-12T10:30:17.525Z,84000
2022-10-12T10:35:02.618Z,84000
2022-10-12T10:40:02.543Z,85000
2022-10-12T10:45:02.289Z,85000
2022-10-12T10:50:02.125Z,84000
2022-10-12T10:55:04.116Z,84000
2022-10-12T11:00:33.395Z,84000
2022-10-12T11:05:01.915Z,84000
2022-10-12T11:10:02.945Z,83000
2022-10-12T11:15:01.795Z,83000
2022-10-12T11:20:02.634Z,44000
2022-10-12T11:25:02.462Z,44000
2022-10-12T11:30:09.252Z,36000
2022-10-12T11:35:02.608Z,36000
2022-10-12T11:40:02.349Z,48000
2022-10-12T11:45:02.151Z,36000
2022-10-12T11:50:02.007Z,36000
2022-10-12T11:55:01.942Z,38000
2022-10-12T12:00:01.733Z,38000
2022-10-12T12:05:02.514Z,84000
2022-10-12T12:10:02.303Z,84000
2022-10-12T12:15:02.073Z,64000
2022-10-12T12:20:01.874Z,64000
2022-10-12T12:25:05.892Z,62000
2022-10-12T12:30:02.686Z,62000
2022-10-12T12:35:02.598Z,72000
2022-10-12T12:40:02.636Z,26000
2022-10-12T12:45:02.448Z,26000
2022-10-12T12:50:02.334Z,45000
2022-10-12T12:55:02.280Z,45000
2022-10-12T13:00:02.281Z,33000
2022-10-12T13:05:12.182Z,33000
2022-10-12T13:10:02.206Z,36000
2022-10-12T13:15:02.034Z,36000
2022-10-12T13:20:01.885Z,34000
2022-10-12T13:25:01.697Z,34000
2022-10-12T13:30:02.451Z,23000
2022-10-12T13:35:02.272Z,14000
2022-10-12T13:40:02.301Z,14000
2022-10-12T13:45:02.070Z,9000
2022-10-12T13:50:01.906Z,10000
2022-10-12T13:55:02.729Z,10000
2022-10-12T14:00:02.550Z,12000
2022-10-12T14:05:02.278Z,12000
2022-10-12T14:10:02.114Z,8000
2022-10-12T14:15:01.962Z,8000
2022-10-12T14:20:01.789Z,9000
2022-10-12T14:25:02.706Z,9000
2022-10-12T14:30:02.535Z,6000
2022-10-12T14:35:02.373Z,6000
2022-10-12T14:40:02.143Z,9000
2022-10-12T14:45:01.928Z,9000
2022-10-12T14:50:02.785Z,20000
2022-10-12T14:55:02.625Z,20000
2022-10-12T15:00:02.440Z,9000
2022-10-12T15:05:02.459Z,9000
2022-10-12T15:10:02.303Z,8000
2022-10-12T15:15:02.381Z,8000
2022-10-12T15:20:02.262Z,4000
2022-10-12T15:25:02.200Z,4000
2022-10-12T15:30:02.127Z,4000
2022-10-12T15:35:01.940Z,4000
2022-10-12T15:40:01.790Z,8000
2022-10-12T15:45:02.821Z,8000
2022-10-12T15:50:02.564Z,3000
2022-10-12T15:55:02.276Z,3000
2022-10-12T16:00:02.016Z,3000
2022-10-12T16:05:01.950Z,3000
2022-10-12T16:10:02.816Z,2000
2022-10-12T16:15:02.632Z,2000
2022-10-12T16:20:02.457Z,1000
2022-10-12T16:25:02.175Z,1000
2022-10-12T16:30:02.038Z,925
2022-10-12T16:35:01.871Z,925
2022-10-12T16:40:02.684Z,651
2022-10-12T16:45:02.507Z,651
2022-10-12T16:50:02.285Z,275
2022-10-12T16:55:02.101Z,275
2022-10-12T17:00:01.898Z,62
2022-10-12T17:05:02.872Z,62
2022-10-12T17:10:02.681Z,19
2022-10-12T17:15:02.541Z,12
2022-10-12T17:25:02.183Z,2
2022-10-12T17:30:02.111Z,2
2022-10-12T17:35:01.961Z,1
2022-10-12T17:40:01.977Z,1
2022-10-12T17:45:01.866Z,1
2022-10-12T17:50:02.780Z,1
2022-10-12T17:55:02.692Z,1
2022-10-12T18:00:02.863Z,1
2022-10-12T18:05:02.788Z,1
2022-10-12T18:10:02.702Z,1
2022-10-12T18:15:02.671Z,1
2022-10-12T18:20:02.713Z,1
2022-10-12T18:25:02.647Z,1
2022-10-12T18:30:02.702Z,1
2022-10-12T18:35:02.606Z,1
2022-10-12T18:40:02.387Z,1
2022-10-12T18:45:02.309Z,1
2022-10-12T18:50:02.178Z,1
2022-10-12T18:55:02.036Z,1
2022-10-12T19:00:02.036Z,1
2022-10-12T19:05:01.854Z,1
2022-10-12T19:10:02.752Z,1
2022-10-12T19:15:02.602Z,1
2022-10-12T19:20:02.494Z,1
2022-10-12T19:25:02.278Z,1
2022-10-12T19:30:02.248Z,1
2022-10-12T19:35:02.211Z,1
2022-10-12T19:40:07.299Z,1
2022-10-12T19:45:02.559Z,1
2022-10-12T19:50:02.362Z,1
2022-10-12T19:55:02.276Z,1
2022-10-12T20:00:02.210Z,1
2022-10-12T20:05:02.107Z,1
2022-10-12T20:10:02.236Z,1
2022-10-12T20:15:02.396Z,1
2022-10-12T20:20:02.392Z,1
2022-10-12T20:25:06.940Z,1
2022-10-12T20:30:02.287Z,1
2022-10-12T20:35:14.926Z,1
2022-10-12T20:40:08.659Z,1
2022-10-12T20:45:08.388Z,1
2022-10-12T20:50:08.053Z,1
2022-10-12T20:55:07.761Z,1
2022-10-12T21:00:08.460Z,1
2022-10-12T21:05:08.128Z,1
2022-10-12T21:10:07.843Z,1
2022-10-12T21:15:08.560Z,1
2022-10-12T21:20:08.251Z,1
2022-10-12T21:25:07.972Z,1
2022-10-12T21:30:07.659Z,1
2022-10-12T21:35:08.518Z,1
2022-10-12T21:40:08.249Z,1
2022-10-12T21:45:07.933Z,1
2022-10-12T21:50:08.589Z,1
2022-10-12T21:55:08.265Z,1
2022-10-12T22:00:08.051Z,1
2022-10-12T22:05:07.786Z,1
2022-10-12T22:10:08.483Z,1
2022-10-12T22:15:08.194Z,1
2022-10-12T22:20:07.882Z,1
2022-10-12T22:25:08.589Z,1
2022-10-12T22:30:08.295Z,1
2022-10-12T22:35:08.008Z,1
2022-10-12T22:40:07.721Z,1
2022-10-12T22:45:08.434Z,1
2022-10-12T22:50:08.142Z,1
2022-10-12T22:55:07.835Z,1
2022-10-12T23:01:02.060Z,1
2022-10-12T23:05:07.782Z,1
2022-10-12T23:10:07.869Z,1
2022-10-12T23:15:08.541Z,1
2022-10-12T23:20:08.285Z,1
2022-10-12T23:25:07.930Z,1
2022-10-12T23:30:08.614Z,1
2022-10-12T23:35:08.317Z,1
2022-10-12T23:40:08.013Z,1
2022-10-12T23:45:07.728Z,1
2022-10-12T23:50:08.430Z,1
2022-10-12T23:55:08.131Z,1
